createdAt,value
2022-10-05T00:00:01.389Z,99.89
2022-10-05T00:03:11.941Z,99.66
2022-10-05T00:06:15.312Z,99.73
2022-10-05T00:09:20.830Z,99.25
2022-10-05T00:12:26.336Z,99.50
2022-10-05T00:15:30.187Z,99.66
2022-10-05T00:18:33.990Z,99.76
2022-10-05T00:21:37.966Z,99.63
2022-10-05T00:24:41.141Z,99.69
2022-10-05T00:27:49.855Z,99.34
2022-10-05T00:30:56.346Z,99.99
2022-10-05T00:33:59.817Z,100.00
2022-10-05T00:37:02.821Z,99.93
2022-10-05T00:40:20.711Z,100.00
2022-10-05T00:43:45.177Z,99.71
2022-10-05T00:46:56.779Z,99.61
2022-10-05T00:50:34.521Z,99.67
2022-10-05T00:53:44.707Z,99.96
2022-10-05T00:57:05.524Z,100.00
2022-10-05T01:00:13.016Z,100.00
2022-10-05T01:03:23.504Z,100.00
2022-10-05T01:06:37.216Z,99.95
2022-10-05T01:09:45.102Z,100.00
2022-10-05T01:12:54.901Z,99.60
2022-10-05T01:16:08.343Z,99.55
2022-10-05T01:19:28.676Z,99.53
2022-10-05T01:22:42.617Z,100.00
2022-10-05T01:25:57.577Z,100.00
2022-10-05T01:29:09.899Z,100.00
2022-10-05T01:32:21.130Z,100.00
2022-10-05T01:35:38.313Z,100.00
2022-10-05T01:38:48.880Z,100.00
2022-10-05T01:42:00.603Z,100.00
2022-10-05T01:45:12.147Z,100.00
2022-10-05T01:48:21.673Z,100.00
2022-10-05T01:51:34.920Z,100.00
2022-10-05T01:54:45.294Z,100.00
2022-10-05T01:58:03.948Z,100.00
2022-10-05T02:01:14.374Z,100.00
2022-10-05T02:04:56.534Z,100.00
2022-10-05T02:07:51.646Z,99.85
2022-10-05T02:11:01.024Z,99.82
2022-10-05T02:14:10.641Z,100.00
2022-10-05T02:17:18.764Z,100.00
2022-10-05T02:20:25.969Z,100.00
2022-10-05T02:23:34.586Z,100.00
2022-10-05T02:26:39.996Z,100.00
2022-10-05T02:29:47.625Z,100.00
2022-10-05T02:32:55.552Z,100.00
2022-10-05T02:36:02.544Z,100.00
2022-10-05T02:39:15.899Z,100.00
2022-10-05T02:42:28.042Z,100.00
2022-10-05T02:45:42.979Z,100.00
2022-10-05T02:49:00.493Z,100.00
2022-10-05T02:52:11.094Z,100.00
2022-10-05T02:55:18.919Z,100.00
2022-10-05T02:58:25.599Z,100.00
2022-10-05T03:01:35.449Z,100.00
2022-10-05T03:04:45.182Z,100.00
2022-10-05T03:07:56.008Z,100.00
2022-10-05T03:11:13.750Z,100.00
2022-10-05T03:14:23.810Z,100.00
2022-10-05T03:17:31.724Z,100.00
2022-10-05T03:20:44.183Z,100.00
2022-10-05T03:24:04.383Z,100.00
2022-10-05T03:27:19.056Z,100.00
2022-10-05T03:30:26.506Z,100.00
2022-10-05T03:33:38.138Z,100.00
2022-10-05T03:36:49.263Z,100.00
2022-10-05T03:39:59.080Z,100.00
2022-10-05T03:43:21.537Z,100.00
2022-10-05T03:46:34.425Z,100.00
2022-10-05T03:49:50.908Z,100.00
2022-10-05T03:52:58.906Z,100.00
2022-10-05T03:56:08.762Z,100.00
2022-10-05T03:59:16.690Z,100.00
2022-10-05T04:02:25.699Z,100.00
2022-10-05T04:05:31.676Z,100.00
2022-10-05T04:08:46.806Z,100.00
2022-10-05T04:11:56.253Z,100.00
2022-10-05T04:15:03.660Z,100.00
2022-10-05T04:18:13.227Z,100.00
2022-10-05T04:21:23.913Z,100.00
2022-10-05T04:24:35.904Z,100.00
2022-10-05T04:27:42.959Z,100.00
2022-10-05T04:30:49.589Z,100.00
2022-10-05T04:34:02.060Z,100.00
2022-10-05T04:37:10.159Z,100.00
2022-10-05T04:40:25.002Z,100.00
2022-10-05T04:43:38.599Z,100.00
2022-10-05T04:46:58.564Z,100.00
2022-10-05T04:50:17.397Z,100.00
2022-10-05T04:53:31.043Z,100.00
2022-10-05T04:56:40.240Z,100.00
2022-10-05T05:00:02.821Z,100.00
2022-10-05T05:03:21.965Z,100.00
2022-10-05T05:06:33.922Z,100.00
2022-10-05T05:09:58.885Z,100.00
2022-10-05T05:13:16.551Z,100.00
2022-10-05T05:16:29.980Z,100.00
2022-10-05T05:19:42.934Z,100.00
2022-10-05T05:22:52.131Z,100.00
2022-10-05T05:26:07.005Z,100.00
2022-10-05T05:29:21.504Z,100.00
2022-10-05T05:32:42.226Z,100.00
2022-10-05T05:36:10.327Z,100.00
2022-10-05T05:39:25.470Z,100.00
2022-10-05T05:42:39.116Z,99.65
2022-10-05T05:45:50.143Z,99.17
2022-10-05T05:48:54.666Z,99.75
2022-10-05T05:52:02.097Z,100.00
2022-10-05T05:55:14.220Z,100.00
2022-10-05T05:58:24.419Z,100.00
2022-10-05T06:01:33.843Z,99.94
2022-10-05T06:04:41.321Z,100.00
2022-10-05T06:07:44.053Z,100.00
2022-10-05T06:14:22.099Z,100.00
2022-10-05T06:17:35.737Z,100.00
2022-10-05T06:20:42.546Z,100.00
2022-10-05T06:23:51.143Z,100.00
2022-10-05T06:27:26.081Z,100.00
2022-10-05T06:30:38.435Z,100.00
2022-10-05T06:33:49.979Z,100.00
2022-10-05T06:37:01.555Z,100.00
2022-10-05T06:40:12.180Z,100.00
2022-10-05T06:43:44.789Z,100.00
2022-10-05T06:47:00.151Z,100.00
2022-10-05T06:50:15.580Z,100.00
2022-10-05T06:53:29.540Z,100.00
2022-10-05T06:56:37.762Z,100.00
2022-10-05T06:59:46.997Z,100.00
2022-10-05T07:02:58.320Z,99.92
2022-10-05T07:06:09.890Z,99.13
2022-10-05T07:09:27.595Z,99.20
2022-10-05T07:12:45.043Z,99.26
2022-10-05T07:15:58.263Z,99.79
2022-10-05T07:19:16.461Z,99.69
2022-10-05T07:22:41.992Z,100.00
2022-10-05T07:25:51.395Z,99.73
2022-10-05T07:29:13.409Z,99.42
2022-10-05T07:32:28.777Z,99.83
2022-10-05T07:36:03.523Z,99.06
2022-10-05T07:39:14.086Z,100.00
2022-10-05T07:42:25.903Z,99.70
2022-10-05T07:45:34.060Z,99.26
2022-10-05T07:48:53.612Z,98.10
2022-10-05T07:52:01.396Z,98.92
2022-10-05T07:55:18.162Z,97.64
2022-10-05T07:58:27.612Z,97.22
2022-10-05T08:01:33.367Z,97.18
2022-10-05T08:04:44.224Z,96.10
2022-10-05T08:07:50.499Z,97.01
2022-10-05T08:11:01.422Z,96.79
2022-10-05T08:14:14.825Z,96.25
2022-10-05T08:17:25.661Z,95.76
2022-10-05T08:20:36.452Z,95.38
2022-10-05T08:23:47.029Z,96.09
2022-10-05T08:26:56.407Z,95.05
2022-10-05T08:30:03.021Z,94.61
2022-10-05T08:33:11.717Z,94.09
2022-10-05T08:36:20.584Z,94.12
2022-10-05T08:39:27.260Z,94.22
2022-10-05T08:43:02.732Z,93.66
2022-10-05T08:46:35.741Z,93.67
2022-10-05T08:50:04.101Z,93.54
2022-10-05T08:53:22.342Z,92.96
2022-10-05T08:56:39.034Z,92.93
2022-10-05T09:00:03.866Z,93.07
2022-10-05T09:03:30.934Z,93.86
2022-10-05T09:06:57.263Z,95.54
2022-10-05T09:10:36.189Z,95.79
2022-10-05T09:14:34.204Z,96.57
2022-10-05T09:18:07.700Z,96.94
2022-10-05T09:21:19.307Z,97.29
2022-10-05T09:24:30.299Z,98.58
2022-10-05T09:27:38.982Z,98.08
2022-10-05T09:30:57.698Z,97.75
2022-10-05T09:34:34.946Z,97.54
2022-10-05T09:38:11.748Z,96.72
2022-10-05T09:41:53.066Z,97.35
2022-10-05T09:45:38.420Z,98.28
2022-10-05T09:49:11.426Z,97.52
2022-10-05T09:52:38.176Z,96.98
2022-10-05T09:56:11.421Z,96.84
2022-10-05T09:59:52.775Z,97.15
2022-10-05T10:03:25.878Z,97.98
2022-10-05T10:06:51.294Z,97.74
2022-10-05T10:10:30.330Z,97.37
2022-10-05T10:13:53.882Z,97.41
2022-10-05T10:17:09.505Z,96.55
2022-10-05T10:20:25.376Z,95.99
2022-10-05T10:24:00.078Z,95.41
2022-10-05T10:27:19.061Z,94.55
2022-10-05T10:30:46.649Z,93.85
2022-10-05T10:34:13.081Z,92.96
2022-10-05T10:37:39.145Z,91.70
2022-10-05T10:40:55.685Z,90.05
2022-10-05T10:44:33.555Z,88.98
2022-10-05T10:47:44.807Z,86.85
2022-10-05T10:51:19.184Z,86.35
2022-10-05T10:55:07.125Z,85.65
2022-10-05T10:58:53.829Z,85.67
2022-10-05T11:02:16.727Z,84.05
2022-10-05T11:05:31.482Z,83.16
2022-10-05T11:09:05.159Z,82.60
2022-10-05T11:12:49.619Z,82.21
2022-10-05T11:16:17.218Z,81.12
2022-10-05T11:20:02.614Z,79.82
2022-10-05T11:23:28.144Z,78.95
2022-10-05T11:26:47.439Z,77.65
2022-10-05T11:30:19.207Z,78.28
2022-10-05T11:34:01.459Z,76.94
2022-10-05T11:37:36.306Z,75.39
2022-10-05T11:41:02.278Z,74.84
2022-10-05T11:44:28.110Z,75.24
2022-10-05T11:47:38.530Z,74.82
2022-10-05T11:50:52.673Z,74.18
2022-10-05T11:54:08.018Z,74.21
2022-10-05T11:57:17.600Z,71.44
2022-10-05T12:00:22.804Z,73.00
2022-10-05T12:03:42.698Z,73.32
2022-10-05T12:07:01.089Z,72.97
2022-10-05T12:10:23.588Z,72.75
2022-10-05T12:13:37.693Z,72.39
2022-10-05T12:16:50.241Z,72.34
2022-10-05T12:19:58.960Z,71.27
2022-10-05T12:23:08.083Z,71.22
2022-10-05T12:26:16.532Z,71.26
2022-10-05T12:29:26.575Z,71.00
2022-10-05T12:32:35.607Z,70.65
2022-10-05T12:35:48.663Z,70.45
2022-10-05T12:39:01.711Z,70.34
2022-10-05T12:42:17.232Z,70.27
2022-10-05T12:45:33.473Z,70.02
2022-10-05T12:48:52.590Z,69.94
2022-10-05T12:51:59.453Z,69.36
2022-10-05T12:55:06.774Z,69.26
2022-10-05T12:58:25.394Z,69.33
2022-10-05T13:01:39.073Z,69.48
2022-10-05T13:04:49.123Z,67.95
2022-10-05T13:08:05.880Z,68.03
2022-10-05T13:11:16.123Z,68.23
2022-10-05T13:14:36.708Z,67.84
2022-10-05T13:17:46.494Z,67.62
2022-10-05T13:20:56.539Z,67.31
2022-10-05T13:24:05.860Z,66.89
2022-10-05T13:27:16.249Z,67.28
2022-10-05T13:30:22.196Z,67.01
2022-10-05T13:33:33.919Z,66.81
2022-10-05T13:36:49.798Z,66.98
2022-10-05T13:40:00.561Z,66.90
2022-10-05T13:43:13.140Z,66.21
2022-10-05T13:46:24.938Z,66.47
2022-10-05T13:49:38.510Z,66.32
2022-10-05T13:52:50.736Z,65.30
2022-10-05T13:56:00.331Z,65.30
2022-10-05T13:59:15.505Z,64.61
2022-10-05T14:02:23.857Z,63.91
2022-10-05T14:05:28.118Z,63.96
2022-10-05T14:08:36.933Z,64.84
2022-10-05T14:11:50.491Z,65.20
2022-10-05T14:14:55.354Z,64.54
2022-10-05T14:18:00.210Z,65.13
2022-10-05T14:21:06.851Z,65.12
2022-10-05T14:24:32.274Z,65.04
2022-10-05T14:27:51.632Z,64.86
2022-10-05T14:30:59.999Z,64.71
2022-10-05T14:34:29.240Z,65.07
2022-10-05T14:37:45.284Z,64.89
2022-10-05T14:41:03.710Z,64.96
2022-10-05T14:44:27.446Z,65.17
2022-10-05T14:47:34.263Z,64.47
2022-10-05T14:50:52.640Z,64.84
2022-10-05T14:53:59.454Z,64.63
2022-10-05T14:57:08.039Z,64.63
2022-10-05T15:00:13.180Z,64.81
2022-10-05T15:03:35.575Z,65.02
2022-10-05T15:06:42.401Z,64.86
2022-10-05T15:09:58.752Z,65.02
2022-10-05T15:13:11.602Z,65.09
2022-10-05T15:16:20.481Z,64.86
2022-10-05T15:19:28.401Z,65.30
2022-10-05T15:22:44.568Z,65.82
2022-10-05T15:25:59.873Z,66.23
2022-10-05T15:29:11.008Z,66.79
2022-10-05T15:32:29.007Z,66.93
2022-10-05T15:35:49.967Z,66.95
2022-10-05T15:39:04.882Z,66.81
2022-10-05T15:42:12.884Z,67.40
2022-10-05T15:45:21.796Z,67.60
2022-10-05T15:48:29.507Z,67.63
2022-10-05T15:51:45.120Z,68.15
2022-10-05T15:55:09.027Z,68.30
2022-10-05T15:58:28.717Z,68.69
2022-10-05T16:01:47.171Z,68.91
2022-10-05T16:05:05.829Z,69.10
2022-10-05T16:08:31.662Z,69.48
2022-10-05T16:11:50.400Z,70.62
2022-10-05T16:15:03.793Z,71.04
2022-10-05T16:18:32.640Z,71.09
2022-10-05T16:21:46.026Z,71.50
2022-10-05T16:25:03.759Z,72.13
2022-10-05T16:28:21.009Z,72.88
2022-10-05T16:31:32.382Z,73.50
2022-10-05T16:34:49.660Z,74.18
2022-10-05T16:38:05.699Z,75.36
2022-10-05T16:41:18.017Z,76.87
2022-10-05T16:44:33.924Z,78.38
2022-10-05T16:47:47.887Z,78.81
2022-10-05T16:51:01.426Z,80.02
2022-10-05T16:54:18.480Z,80.76
2022-10-05T16:57:24.607Z,81.29
2022-10-05T17:00:37.504Z,82.03
2022-10-05T17:03:52.171Z,82.08
2022-10-05T17:07:12.484Z,83.44
2022-10-05T17:10:35.857Z,85.07
2022-10-05T17:13:58.004Z,86.40
2022-10-05T17:17:26.214Z,86.70
2022-10-05T17:20:43.142Z,87.10
2022-10-05T17:23:55.149Z,87.29
2022-10-05T17:27:03.485Z,88.07
2022-10-05T17:30:46.421Z,87.73
2022-10-05T17:34:26.235Z,88.34
2022-10-05T17:37:41.815Z,88.92
2022-10-05T17:41:05.823Z,89.73
2022-10-05T17:44:32.612Z,90.06
2022-10-05T17:47:56.804Z,92.03
2022-10-05T17:51:18.230Z,92.58
2022-10-05T17:54:41.224Z,93.35
2022-10-05T17:57:44.083Z,93.77
2022-10-05T18:01:07.150Z,93.50
2022-10-05T18:04:40.374Z,94.29
2022-10-05T18:07:48.161Z,94.70
2022-10-05T18:11:17.382Z,94.72
2022-10-05T18:14:24.481Z,94.60
2022-10-05T18:17:51.265Z,93.84
2022-10-05T18:21:20.795Z,94.00
2022-10-05T18:25:03.768Z,93.94
2022-10-05T18:28:16.578Z,94.13
2022-10-05T18:31:30.606Z,93.88
2022-10-05T18:34:39.488Z,93.68
2022-10-05T18:37:52.221Z,93.97
2022-10-05T18:41:02.666Z,93.96
2022-10-05T18:44:25.199Z,93.60
2022-10-05T18:47:35.391Z,94.15
2022-10-05T18:50:46.444Z,94.04
2022-10-05T18:54:05.685Z,94.04
2022-10-05T18:57:52.880Z,94.13
2022-10-05T19:01:13.555Z,94.25
2022-10-05T19:04:22.536Z,94.75
2022-10-05T19:07:37.760Z,94.89
2022-10-05T19:10:45.069Z,95.12
2022-10-05T19:14:00.881Z,95.04
2022-10-05T19:17:23.095Z,95.29
2022-10-05T19:20:34.074Z,95.46
2022-10-05T19:23:56.320Z,95.48
2022-10-05T19:27:07.776Z,96.01
2022-10-05T19:30:20.981Z,95.90
2022-10-05T19:33:35.781Z,95.98
2022-10-05T19:36:53.662Z,96.02
2022-10-05T19:40:07.252Z,96.29
2022-10-05T19:43:28.207Z,96.11
2022-10-05T19:46:50.330Z,96.41
2022-10-05T19:50:00.416Z,96.57
2022-10-05T19:53:12.308Z,96.65
2022-10-05T19:56:20.548Z,97.30
2022-10-05T19:59:27.175Z,97.34
2022-10-05T20:02:32.650Z,97.67
2022-10-05T20:05:35.568Z,97.62
2022-10-05T20:08:40.372Z,97.63
2022-10-05T20:11:49.997Z,97.38
2022-10-05T20:15:27.659Z,97.29
2022-10-05T20:18:56.808Z,97.28
2022-10-05T20:22:00.535Z,97.52
2022-10-05T20:25:06.257Z,97.55
2022-10-05T20:28:09.004Z,97.43
2022-10-05T20:31:12.433Z,97.80
2022-10-05T20:34:17.981Z,97.75
2022-10-05T20:37:20.794Z,98.08
2022-10-05T20:40:23.501Z,97.68
2022-10-05T20:43:26.270Z,97.79
2022-10-05T20:46:30.951Z,97.93
2022-10-05T20:49:36.635Z,97.86
2022-10-05T20:52:39.769Z,98.19
2022-10-05T20:55:43.352Z,98.02
2022-10-05T20:58:46.050Z,98.15
2022-10-05T21:01:49.312Z,98.51
2022-10-05T21:04:53.830Z,98.47
2022-10-05T21:07:56.751Z,98.76
2022-10-05T21:10:59.441Z,98.75
2022-10-05T21:14:05.567Z,99.02
2022-10-05T21:17:09.431Z,99.30
2022-10-05T21:20:13.968Z,99.50
2022-10-05T21:23:16.679Z,99.06
2022-10-05T21:26:19.796Z,98.98
2022-10-05T21:29:22.785Z,98.70
2022-10-05T21:32:25.563Z,98.43
2022-10-05T21:35:29.595Z,98.02
2022-10-05T21:38:32.636Z,98.46
2022-10-05T21:41:35.383Z,98.39
2022-10-05T21:44:38.345Z,98.17
2022-10-05T21:47:42.058Z,97.94
2022-10-05T21:50:46.465Z,97.83
2022-10-05T21:53:52.885Z,97.78
2022-10-05T21:56:58.353Z,98.24
2022-10-05T22:00:01.524Z,97.81
2022-10-05T22:03:04.469Z,97.26
2022-10-05T22:06:09.139Z,97.01
2022-10-05T22:09:12.235Z,96.60
2022-10-05T22:12:15.599Z,96.86
2022-10-05T22:15:18.915Z,97.18
2022-10-05T22:18:22.043Z,97.30
2022-10-05T22:21:26.785Z,97.44
2022-10-05T22:24:29.922Z,97.59
2022-10-05T22:27:33.766Z,97.76
2022-10-05T22:30:37.008Z,97.96
2022-10-05T22:33:40.488Z,97.87
2022-10-05T22:36:46.100Z,97.91
2022-10-05T22:39:49.217Z,97.89
2022-10-05T22:42:53.463Z,97.66
2022-10-05T22:45:57.001Z,98.03
2022-10-05T22:48:59.981Z,98.25
2022-10-05T22:52:04.413Z,98.22
2022-10-05T22:55:08.066Z,98.63
2022-10-05T22:58:11.122Z,98.37
2022-10-05T23:01:15.426Z,98.46
2022-10-05T23:04:18.202Z,98.66
2022-10-05T23:07:22.271Z,98.76
2022-10-05T23:10:26.104Z,98.53
2022-10-05T23:13:29.331Z,98.44
2022-10-05T23:16:32.132Z,98.42
2022-10-05T23:19:35.199Z,98.77
2022-10-05T23:22:40.128Z,98.56
2022-10-05T23:25:43.108Z,98.78
2022-10-05T23:28:47.431Z,98.72
2022-10-05T23:31:50.688Z,98.49
2022-10-05T23:34:53.339Z,98.88
2022-10-05T23:37:57.409Z,98.89
2022-10-05T23:41:00.468Z,99.02
2022-10-05T23:44:03.165Z,98.76
2022-10-05T23:47:06.053Z,98.88
2022-10-05T23:50:10.041Z,98.93
2022-10-05T23:53:14.187Z,99.03
2022-10-05T23:56:16.910Z,99.21
2022-10-05T23:59:19.933Z,99.01
